K0S9 Airport Information

Runway Information
Runway 09 Length 3000 ft width 75 ft
Elevation 0 ft Threshold 0 ft Heading 104
Runway 27 Length 3000 ft Width 75 ft
Elevation 0 ft Threshold 850 ft Heading 337
Airport Frequencies
Type UNIC Name CTAF/UNICO Frequency 123 MHZ
Airport Navaids
Airport Weather Information & NOTAM
ADDS - METARS form results

(0624 UTC 15 December 2018)
Data provider http://aviationweather.gov/metar/data/
 
METAR text: K0S9 150615Z AUTO 00000KT 10SM SCT025 BKN044 OVC055 06/04 A2983 RMK AO2
Conditions at: K0S9 (PORT TOWNSEND , WA, US) observed 0615 UTC 15 December 2018
Temperature: 6.0°C (43°F)
Dewpoint: 4.0°C (39°F) [RH = 87%]
Pressure (altimeter): 29.83 inches Hg (1010.2 mb)
Winds: calm
Visibility: 10 or more miles (16+ km)
Ceiling: 4400 feet AGL
Clouds: scattered clouds at 2500 feet AGL
broken clouds at 4400 feet AGL
overcast cloud deck at 5500 feet AGL
Weather: automated observation with no human augmentation;
there may or may not be significant weather present at this time

METAR text: K0S9 150555Z AUTO 32006KT 10SM BKN026 BKN031 OVC050 06/04 A2981 RMK AO2
Conditions at: K0S9 (PORT TOWNSEND , WA, US) observed 0555 UTC 15 December 2018
Temperature: 6.0°C (43°F)
Dewpoint: 4.0°C (39°F) [RH = 87%]
Pressure (altimeter): 29.81 inches Hg (1009.6 mb)
Winds: from the NW (320 degrees) at 7 MPH (6 knots; 3.1 m/s)
Visibility: 10 or more miles (16+ km)
Ceiling: 2600 feet AGL
Clouds: broken clouds at 2600 feet AGL
broken clouds at 3100 feet AGL
overcast cloud deck at 5000 feet AGL
Weather: automated observation with no human augmentation;
there may or may not be significant weather present at this time

METAR text: K0S9 150535Z AUTO 00000G10KT 10SM BKN026 OVC031 07/04 A2978 RMK AO2
Conditions at: K0S9 (PORT TOWNSEND , WA, US) observed 0535 UTC 15 December 2018
Temperature: 7.0°C (45°F)
Dewpoint: 4.0°C (39°F) [RH = 81%]
Pressure (altimeter): 29.78 inches Hg (1008.5 mb)
Winds: calm
Visibility: 10 or more miles (16+ km)
Ceiling: 2600 feet AGL
Clouds: broken clouds at 2600 feet AGL
overcast cloud deck at 3100 feet AGL
Weather: automated observation with no human augmentation;
there may or may not be significant weather present at this time